createdAt,value
2023-03-03T00:01:49.488Z,13.18
2023-03-03T00:04:17.112Z,14.15
2023-03-03T00:06:45.649Z,14.68
2023-03-03T00:09:13.419Z,13.45
2023-03-03T00:11:42.381Z,13.40
2023-03-03T00:14:18.758Z,12.98
2023-03-03T00:16:49.203Z,13.32
2023-03-03T00:19:19.054Z,14.35
2023-03-03T00:21:47.293Z,12.20
2023-03-03T00:24:22.124Z,12.07
2023-03-03T00:26:52.826Z,12.32
2023-03-03T00:29:31.233Z,11.77
2023-03-03T00:32:08.763Z,13.70
2023-03-03T00:34:37.917Z,13.40
2023-03-03T00:37:16.319Z,14.85
2023-03-03T00:39:43.984Z,12.88
2023-03-03T00:42:14.524Z,13.18
2023-03-03T00:44:43.817Z,11.23
2023-03-03T00:47:25.827Z,14.52
2023-03-03T00:49:53.961Z,14.07
2023-03-03T00:52:21.806Z,15.10
2023-03-03T00:54:49.857Z,12.98
2023-03-03T00:57:19.554Z,13.77
2023-03-03T00:59:47.280Z,13.02
2023-03-03T01:02:14.930Z,13.73
2023-03-03T01:04:43.539Z,12.93
2023-03-03T01:07:12.233Z,13.30
2023-03-03T01:09:39.820Z,13.73
2023-03-03T01:12:07.553Z,13.75
2023-03-03T01:14:36.680Z,13.85
2023-03-03T01:17:04.414Z,13.15
2023-03-03T01:19:32.049Z,13.02
2023-03-03T01:21:59.764Z,13.32
2023-03-03T01:24:27.405Z,13.52
2023-03-03T01:26:55.042Z,13.98
2023-03-03T01:29:24.592Z,13.18
2023-03-03T01:31:53.672Z,13.88
2023-03-03T01:34:21.867Z,12.98
2023-03-03T01:36:49.584Z,13.32
2023-03-03T01:39:17.275Z,13.32
2023-03-03T01:41:44.942Z,13.32
2023-03-03T01:44:15.183Z,12.40
2023-03-03T01:46:48.037Z,14.07
2023-03-03T01:49:18.381Z,15.73
2023-03-03T01:51:48.800Z,13.02
2023-03-03T01:54:19.707Z,12.43
2023-03-03T01:56:47.596Z,12.80
2023-03-03T01:59:17.139Z,13.57
2023-03-03T02:01:44.994Z,16.00
2023-03-03T02:04:12.819Z,13.85
2023-03-03T02:06:43.116Z,13.07
2023-03-03T02:09:12.843Z,14.20
2023-03-03T02:11:43.030Z,14.75
2023-03-03T02:14:11.695Z,16.08
2023-03-03T02:16:39.688Z,15.05
2023-03-03T02:19:10.798Z,13.15
2023-03-03T02:21:38.486Z,13.00
2023-03-03T02:24:10.021Z,15.65
2023-03-03T02:26:41.502Z,15.18
2023-03-03T02:29:10.012Z,13.30
2023-03-03T02:31:38.636Z,13.32
2023-03-03T02:34:06.457Z,12.93
2023-03-03T02:36:34.849Z,14.25
2023-03-03T02:39:05.963Z,13.55
2023-03-03T02:41:35.866Z,15.45
2023-03-03T02:44:06.025Z,15.43
2023-03-03T02:46:34.335Z,13.85
2023-03-03T02:49:02.111Z,13.88
2023-03-03T02:51:29.762Z,14.18
2023-03-03T02:53:57.442Z,12.85
2023-03-03T02:56:25.123Z,14.13
2023-03-03T02:58:52.730Z,16.10
2023-03-03T03:01:22.052Z,13.63
2023-03-03T03:03:49.901Z,14.50
2023-03-03T03:06:17.708Z,15.05
2023-03-03T03:08:45.375Z,14.43
2023-03-03T03:11:12.970Z,15.05
2023-03-03T03:13:40.703Z,13.63
2023-03-03T03:16:08.971Z,14.27
2023-03-03T03:18:38.068Z,12.38
2023-03-03T03:21:09.650Z,14.50
2023-03-03T03:23:37.615Z,13.05
2023-03-03T03:26:06.018Z,14.70
2023-03-03T03:28:34.060Z,14.95
2023-03-03T03:31:01.834Z,14.00
2023-03-03T03:33:29.509Z,13.55
2023-03-03T03:35:58.901Z,13.70
2023-03-03T03:38:27.181Z,13.77
2023-03-03T03:40:55.047Z,13.55
2023-03-03T03:43:22.754Z,14.57
2023-03-03T03:45:50.708Z,14.98
2023-03-03T03:48:20.016Z,14.32
2023-03-03T03:50:48.124Z,14.60
2023-03-03T03:53:17.188Z,14.43
2023-03-03T03:55:45.308Z,15.07
2023-03-03T03:58:14.113Z,13.45
2023-03-03T04:00:42.165Z,16.20
2023-03-03T04:03:10.872Z,15.38
2023-03-03T04:05:38.763Z,20.65
2023-03-03T04:08:06.535Z,16.30
2023-03-03T04:10:35.581Z,16.85
2023-03-03T04:13:03.296Z,18.70
2023-03-03T04:15:30.934Z,17.92
2023-03-03T04:17:58.571Z,14.57
2023-03-03T04:20:26.226Z,16.90
2023-03-03T04:22:53.942Z,16.40
2023-03-03T04:25:22.683Z,19.75
2023-03-03T04:27:52.893Z,21.05
2023-03-03T04:30:20.580Z,19.05
2023-03-03T04:32:49.654Z,20.00
2023-03-03T04:35:17.690Z,20.73
2023-03-03T04:37:45.338Z,18.25
2023-03-03T04:40:13.097Z,18.20
2023-03-03T04:42:40.741Z,18.77
2023-03-03T04:45:10.521Z,17.60
2023-03-03T04:47:38.127Z,19.38
2023-03-03T04:50:06.155Z,16.85
2023-03-03T04:52:33.771Z,16.92
2023-03-03T04:55:01.395Z,19.85
2023-03-03T04:57:29.238Z,18.52
2023-03-03T04:59:56.827Z,19.15
2023-03-03T05:02:26.121Z,17.20
2023-03-03T05:04:54.186Z,17.77
2023-03-03T05:07:22.644Z,18.55
2023-03-03T05:09:50.410Z,16.92
2023-03-03T05:12:18.078Z,21.63
2023-03-03T05:14:45.896Z,17.17
2023-03-03T05:17:16.757Z,17.25
2023-03-03T05:19:45.812Z,18.00
2023-03-03T05:22:13.448Z,21.35
2023-03-03T05:24:42.938Z,16.45
2023-03-03T05:27:11.889Z,17.98
2023-03-03T05:29:41.534Z,18.02
2023-03-03T05:32:09.329Z,16.95
2023-03-03T05:34:36.956Z,14.23
2023-03-03T05:37:06.801Z,17.05
2023-03-03T05:39:34.716Z,16.85
2023-03-03T05:42:02.941Z,19.00
2023-03-03T05:44:30.656Z,18.75
2023-03-03T05:46:59.311Z,15.98
2023-03-03T05:49:27.111Z,15.15
2023-03-03T05:51:54.733Z,17.50
2023-03-03T05:54:23.772Z,15.73
2023-03-03T05:56:51.376Z,14.82
2023-03-03T05:59:19.180Z,17.33
2023-03-03T06:01:46.835Z,17.67
2023-03-03T06:04:14.448Z,17.35
2023-03-03T06:06:42.099Z,17.27
2023-03-03T06:09:09.786Z,17.40
2023-03-03T06:11:39.990Z,17.40
2023-03-03T06:14:07.740Z,15.85
2023-03-03T06:16:35.484Z,17.42
2023-03-03T06:19:03.169Z,17.08
2023-03-03T06:21:30.880Z,16.50
2023-03-03T06:23:58.592Z,15.15
2023-03-03T06:26:26.559Z,17.73
2023-03-03T06:28:55.720Z,17.95
2023-03-03T06:31:23.503Z,15.23
2023-03-03T06:33:51.535Z,19.75
2023-03-03T06:36:19.701Z,18.30
2023-03-03T06:38:47.658Z,19.02
2023-03-03T06:41:15.295Z,20.20
2023-03-03T06:43:42.967Z,19.13
2023-03-03T06:46:12.030Z,21.33
2023-03-03T06:48:40.848Z,22.23
2023-03-03T06:51:17.382Z,24.63
2023-03-03T06:53:45.010Z,22.15
2023-03-03T06:56:12.609Z,22.65
2023-03-03T06:58:40.522Z,17.08
2023-03-03T07:01:13.229Z,19.27
2023-03-03T07:03:42.317Z,21.85
2023-03-03T07:06:15.954Z,20.52
2023-03-03T07:08:43.600Z,18.98
2023-03-03T07:11:16.748Z,20.00
2023-03-03T07:13:46.036Z,20.73
2023-03-03T07:16:15.288Z,19.92
2023-03-03T07:18:48.385Z,21.15
2023-03-03T07:21:18.420Z,18.30
2023-03-03T07:23:47.116Z,16.13
2023-03-03T07:26:15.998Z,19.45
2023-03-03T07:28:44.781Z,19.08
2023-03-03T07:31:26.552Z,21.27
2023-03-03T07:33:56.227Z,18.83
2023-03-03T07:36:27.280Z,18.67
2023-03-03T07:38:55.599Z,19.42
2023-03-03T07:41:24.359Z,20.45
2023-03-03T07:43:54.517Z,22.52
2023-03-03T07:46:30.547Z,20.85
2023-03-03T07:48:59.996Z,21.15
2023-03-03T07:51:29.171Z,17.85
2023-03-03T07:54:02.221Z,21.05
2023-03-03T07:56:30.971Z,19.75
2023-03-03T07:58:59.570Z,20.60
2023-03-03T08:01:39.951Z,20.40
2023-03-03T08:04:17.473Z,22.65
2023-03-03T08:06:49.521Z,17.48
2023-03-03T08:09:40.877Z,18.60
2023-03-03T08:12:27.151Z,16.83
2023-03-03T08:14:55.309Z,18.67
2023-03-03T08:17:23.905Z,17.15
2023-03-03T08:19:54.089Z,15.63
2023-03-03T08:22:26.363Z,15.48
2023-03-03T08:24:57.059Z,16.38
2023-03-03T08:27:25.530Z,15.88
2023-03-03T08:29:53.215Z,16.27
2023-03-03T08:32:21.256Z,12.88
2023-03-03T08:34:49.426Z,12.77
2023-03-03T08:37:18.503Z,15.13
2023-03-03T08:39:46.194Z,15.40
2023-03-03T08:42:16.180Z,13.93
2023-03-03T08:44:43.980Z,14.77
2023-03-03T08:47:11.653Z,14.50
2023-03-03T08:49:40.278Z,13.07
2023-03-03T08:52:07.967Z,13.13
2023-03-03T08:54:36.961Z,14.02
2023-03-03T08:57:04.731Z,15.10
2023-03-03T08:59:37.794Z,14.40
2023-03-03T09:02:05.834Z,14.15
2023-03-03T09:04:33.594Z,14.57
2023-03-03T09:07:02.714Z,15.68
2023-03-03T09:09:30.559Z,15.73
2023-03-03T09:12:00.490Z,12.70
2023-03-03T09:14:29.615Z,13.40
2023-03-03T09:16:58.126Z,17.08
2023-03-03T09:19:27.507Z,14.63
2023-03-03T09:21:55.812Z,14.25
2023-03-03T09:24:26.267Z,16.23
2023-03-03T09:26:58.546Z,14.27
2023-03-03T09:29:29.182Z,13.18
2023-03-03T09:31:58.756Z,14.45
2023-03-03T09:34:28.132Z,15.57
2023-03-03T09:36:56.212Z,14.48
2023-03-03T09:39:24.628Z,14.82
2023-03-03T09:42:10.297Z,12.13
2023-03-03T09:45:07.983Z,14.32
2023-03-03T09:47:43.193Z,13.52
2023-03-03T09:50:19.114Z,13.98
2023-03-03T09:52:51.809Z,12.23
2023-03-03T09:55:26.764Z,10.77
2023-03-03T09:58:11.555Z,13.70
2023-03-03T10:00:46.192Z,12.00
2023-03-03T10:03:31.853Z,12.63
2023-03-03T10:06:00.924Z,14.13
2023-03-03T10:08:43.378Z,11.38
2023-03-03T10:11:14.475Z,12.18
2023-03-03T10:13:47.636Z,14.45
2023-03-03T10:16:23.754Z,12.18
2023-03-03T10:18:56.285Z,12.90
2023-03-03T10:21:25.683Z,13.13
2023-03-03T10:23:58.493Z,14.75
2023-03-03T10:27:01.277Z,12.57
2023-03-03T10:29:37.691Z,11.93
2023-03-03T10:32:19.537Z,12.85
2023-03-03T10:34:56.078Z,12.05
2023-03-03T10:37:29.473Z,11.25
2023-03-03T10:40:05.330Z,10.75
2023-03-03T10:42:47.818Z,11.27
2023-03-03T10:45:27.019Z,9.95
2023-03-03T10:47:59.182Z,9.60
2023-03-03T10:50:31.782Z,9.90
2023-03-03T10:53:04.651Z,10.93
2023-03-03T10:55:39.497Z,9.20
2023-03-03T10:58:21.665Z,10.27
2023-03-03T11:00:52.408Z,8.82
2023-03-03T11:03:42.499Z,7.93
2023-03-03T11:06:17.341Z,7.80
2023-03-03T11:08:47.197Z,6.95
2023-03-03T11:11:19.635Z,8.02
2023-03-03T11:13:49.933Z,8.85
2023-03-03T11:16:23.021Z,8.32
2023-03-03T11:18:58.840Z,8.75
2023-03-03T11:21:32.776Z,9.73
2023-03-03T11:24:07.231Z,8.82
2023-03-03T11:26:43.555Z,8.98
2023-03-03T11:29:17.651Z,8.70
2023-03-03T11:31:48.637Z,7.65
2023-03-03T11:34:21.046Z,8.25
2023-03-03T11:36:51.723Z,8.13
2023-03-03T11:39:21.544Z,8.88
2023-03-03T11:42:01.004Z,7.10
2023-03-03T11:44:30.606Z,7.85
2023-03-03T11:47:01.229Z,7.70
2023-03-03T11:49:33.337Z,8.23
2023-03-03T11:52:08.567Z,6.50
2023-03-03T11:54:40.101Z,7.32
2023-03-03T11:57:13.843Z,6.40
2023-03-03T11:59:45.588Z,7.53
2023-03-03T12:02:34.339Z,7.97
2023-03-03T12:05:07.944Z,7.35
2023-03-03T12:07:42.696Z,5.72
2023-03-03T12:10:17.510Z,8.10
2023-03-03T12:12:46.370Z,6.70
2023-03-03T12:15:20.617Z,9.05
2023-03-03T12:17:53.936Z,7.07
2023-03-03T12:20:26.528Z,9.02
2023-03-03T12:23:06.840Z,8.25
2023-03-03T12:25:38.400Z,7.13
2023-03-03T12:28:11.905Z,8.25
2023-03-03T12:30:56.225Z,6.20
2023-03-03T12:33:28.845Z,6.88
2023-03-03T12:36:02.679Z,6.80
2023-03-03T12:38:36.510Z,7.13
2023-03-03T12:41:06.846Z,7.13
2023-03-03T12:43:40.578Z,7.15
2023-03-03T12:46:14.505Z,6.72
2023-03-03T12:48:43.251Z,7.50
2023-03-03T12:51:16.346Z,6.68
2023-03-03T12:54:04.864Z,6.55
2023-03-03T12:56:39.133Z,7.03
2023-03-03T12:59:11.713Z,7.30
2023-03-03T13:01:44.138Z,6.40
2023-03-03T13:04:15.922Z,6.82
2023-03-03T13:06:47.245Z,6.22
2023-03-03T13:09:27.001Z,5.68
2023-03-03T13:12:01.942Z,6.25
2023-03-03T13:14:34.130Z,6.25
2023-03-03T13:17:04.857Z,5.20
2023-03-03T13:19:34.691Z,5.75
2023-03-03T13:22:08.627Z,6.85
2023-03-03T13:24:42.756Z,7.13
2023-03-03T13:27:13.365Z,8.68
2023-03-03T13:29:42.564Z,7.35
2023-03-03T13:32:13.523Z,7.45
2023-03-03T13:34:45.130Z,7.07
2023-03-03T13:37:19.842Z,8.05
2023-03-03T13:39:54.104Z,6.70
2023-03-03T13:42:26.461Z,7.30
2023-03-03T13:44:54.352Z,6.90
2023-03-03T13:47:25.080Z,6.82
2023-03-03T13:49:59.705Z,7.57
2023-03-03T13:52:29.091Z,7.03
2023-03-03T13:55:04.768Z,7.95
2023-03-03T13:57:43.448Z,7.55
2023-03-03T14:00:17.367Z,7.22
2023-03-03T14:02:53.800Z,7.38
2023-03-03T14:05:25.696Z,7.60
2023-03-03T14:07:56.583Z,8.38
2023-03-03T14:10:26.520Z,7.68
2023-03-03T14:13:01.731Z,7.32
2023-03-03T14:15:31.663Z,7.03
2023-03-03T14:18:06.749Z,6.68
2023-03-03T14:20:36.609Z,6.07
2023-03-03T14:23:08.998Z,6.43
2023-03-03T14:25:51.709Z,6.78
2023-03-03T14:28:22.413Z,7.57
2023-03-03T14:30:50.791Z,6.35
2023-03-03T14:33:22.680Z,7.13
2023-03-03T14:35:52.457Z,5.53
2023-03-03T14:38:21.128Z,6.22
2023-03-03T14:40:49.386Z,6.60
2023-03-03T14:43:23.395Z,7.00
2023-03-03T14:45:51.056Z,6.13
2023-03-03T14:48:19.318Z,6.55
2023-03-03T14:50:50.328Z,7.03
2023-03-03T14:53:22.755Z,7.03
2023-03-03T14:55:51.713Z,8.40
2023-03-03T14:58:27.146Z,8.05
2023-03-03T15:03:24.185Z,5.95
2023-03-03T15:05:52.370Z,7.35
2023-03-03T15:08:26.126Z,7.38
2023-03-03T15:10:53.819Z,7.43
2023-03-03T15:13:32.707Z,6.70
2023-03-03T15:16:05.688Z,6.55
2023-03-03T15:18:34.249Z,6.93
2023-03-03T15:21:04.922Z,8.23
2023-03-03T15:23:41.259Z,8.38
2023-03-03T15:26:11.514Z,7.70
2023-03-03T15:28:47.046Z,7.10
2023-03-03T15:31:22.020Z,8.88
2023-03-03T15:33:54.945Z,7.72
2023-03-03T15:36:28.994Z,9.27
2023-03-03T15:39:01.514Z,8.05
2023-03-03T15:41:37.003Z,8.45
2023-03-03T15:46:38.762Z,8.10
2023-03-03T15:49:14.402Z,9.43
2023-03-03T15:52:02.190Z,7.88
2023-03-03T15:54:37.152Z,8.15
2023-03-03T15:57:06.342Z,7.82
2023-03-03T15:59:47.352Z,8.00
2023-03-03T16:02:21.346Z,7.28
2023-03-03T16:04:52.198Z,4.85
2023-03-03T16:07:27.013Z,5.38
2023-03-03T16:09:58.804Z,5.00
2023-03-03T16:12:32.270Z,5.65
2023-03-03T16:15:16.577Z,4.88
2023-03-03T16:17:47.775Z,5.05
2023-03-03T16:20:20.801Z,4.93
2023-03-03T16:22:57.239Z,4.43
2023-03-03T16:25:34.744Z,4.25
2023-03-03T16:28:05.935Z,4.60
2023-03-03T16:30:35.829Z,5.40
2023-03-03T16:33:15.801Z,5.57
2023-03-03T16:35:45.902Z,5.30
2023-03-03T16:38:14.802Z,5.28
2023-03-03T16:40:46.048Z,5.28
2023-03-03T16:43:20.139Z,4.88
2023-03-03T16:45:47.994Z,4.60
2023-03-03T16:48:22.775Z,3.80
2023-03-03T16:51:00.925Z,5.22
2023-03-03T16:53:39.406Z,4.20
2023-03-03T16:56:09.458Z,4.03
2023-03-03T16:58:42.980Z,4.13
2023-03-03T17:01:13.780Z,4.20
2023-03-03T17:03:57.222Z,3.88
2023-03-03T17:06:28.915Z,3.60
2023-03-03T17:09:33.252Z,4.18
2023-03-03T17:12:07.712Z,3.08
2023-03-03T17:14:42.298Z,4.38
2023-03-03T17:17:13.533Z,3.87
2023-03-03T17:19:50.342Z,4.13
2023-03-03T17:22:20.988Z,4.15
2023-03-03T17:24:52.165Z,3.97
2023-03-03T17:27:25.151Z,4.20
2023-03-03T17:29:57.905Z,4.45
2023-03-03T17:32:37.401Z,4.75
2023-03-03T17:35:15.161Z,5.80
2023-03-03T17:37:49.736Z,4.82
2023-03-03T17:40:22.543Z,4.87
2023-03-03T17:42:53.996Z,4.30
2023-03-03T17:45:22.595Z,5.10
2023-03-03T17:48:11.158Z,4.38
2023-03-03T17:50:53.785Z,4.40
2023-03-03T17:53:27.963Z,5.00
2023-03-03T17:56:03.574Z,5.03
2023-03-03T17:58:41.861Z,8.00
2023-03-03T18:01:14.024Z,10.15
2023-03-03T18:04:00.509Z,5.35
2023-03-03T18:06:47.464Z,5.25
2023-03-03T18:09:22.772Z,4.57
2023-03-03T18:12:05.241Z,4.53
2023-03-03T18:14:42.753Z,4.63
2023-03-03T18:17:25.169Z,4.25
2023-03-03T18:20:16.667Z,6.57
2023-03-03T18:22:45.196Z,10.20
2023-03-03T18:25:15.424Z,9.90
2023-03-03T18:27:43.804Z,8.27
2023-03-03T18:30:35.603Z,6.10
2023-03-03T18:33:11.363Z,5.55
2023-03-03T18:35:40.207Z,7.28
2023-03-03T18:38:30.374Z,4.50
2023-03-03T18:41:00.234Z,4.05
2023-03-03T18:43:47.335Z,4.07
2023-03-03T18:46:44.849Z,4.40
2023-03-03T18:49:12.646Z,4.18
2023-03-03T18:51:52.847Z,4.75
2023-03-03T18:54:30.944Z,4.32
2023-03-03T18:57:20.528Z,4.93
2023-03-03T18:59:58.389Z,5.70
2023-03-03T19:02:31.262Z,4.18
2023-03-03T19:05:07.018Z,4.25
2023-03-03T19:07:48.345Z,4.75
2023-03-03T19:10:30.792Z,4.75
2023-03-03T19:13:00.110Z,4.68
2023-03-03T19:15:46.359Z,4.38
2023-03-03T19:18:19.474Z,4.97
2023-03-03T19:20:48.155Z,5.05
2023-03-03T19:23:17.172Z,5.07
2023-03-03T19:25:48.189Z,5.07
2023-03-03T19:28:29.077Z,6.18
2023-03-03T19:30:57.981Z,5.03
2023-03-03T19:33:43.789Z,5.78
2023-03-03T19:36:34.053Z,6.15
2023-03-03T19:39:12.367Z,6.07
2023-03-03T19:41:46.440Z,5.93
2023-03-03T19:44:23.706Z,6.32
2023-03-03T19:46:57.192Z,6.30
2023-03-03T19:49:34.409Z,7.15
2023-03-03T19:52:05.096Z,5.97
2023-03-03T19:54:50.296Z,5.30
2023-03-03T19:57:20.961Z,6.30
2023-03-03T19:59:53.454Z,5.63
2023-03-03T20:02:28.866Z,5.10
2023-03-03T20:07:29.144Z,5.15
2023-03-03T20:09:59.755Z,5.38
2023-03-03T20:12:31.495Z,6.68
2023-03-03T20:15:06.155Z,6.43
2023-03-03T20:17:54.918Z,6.68
2023-03-03T20:20:30.650Z,6.22
2023-03-03T20:23:03.725Z,7.03
2023-03-03T20:25:37.293Z,6.00
2023-03-03T20:28:14.170Z,7.60
2023-03-03T20:30:53.774Z,6.38
2023-03-03T20:33:28.827Z,6.72
2023-03-03T20:36:05.101Z,6.25
2023-03-03T20:38:39.263Z,7.32
2023-03-03T20:41:13.907Z,6.13
2023-03-03T20:43:54.520Z,6.80
2023-03-03T20:46:27.590Z,5.47
2023-03-03T20:49:12.269Z,7.43
2023-03-03T20:51:43.950Z,6.75
2023-03-03T20:54:15.502Z,7.15
2023-03-03T20:56:49.895Z,7.35
2023-03-03T20:59:22.899Z,7.00
2023-03-03T21:01:54.474Z,8.07
2023-03-03T21:04:23.543Z,5.95
2023-03-03T21:06:51.628Z,5.70
2023-03-03T21:09:24.304Z,5.43
2023-03-03T21:11:51.937Z,6.35
2023-03-03T21:14:21.323Z,6.50
2023-03-03T21:16:49.321Z,6.93
2023-03-03T21:19:26.320Z,6.28
2023-03-03T21:21:54.510Z,6.72
2023-03-03T21:24:23.847Z,5.95
2023-03-03T21:26:53.152Z,5.97
2023-03-03T21:29:22.383Z,7.35
2023-03-03T21:31:50.953Z,7.00
2023-03-03T21:34:19.993Z,6.20
2023-03-03T21:36:49.992Z,6.60
2023-03-03T21:39:21.977Z,5.82
2023-03-03T21:41:55.211Z,7.13
2023-03-03T21:44:36.408Z,6.70
2023-03-03T21:47:04.800Z,6.78
2023-03-03T21:49:32.480Z,6.45
2023-03-03T21:52:01.770Z,7.57
2023-03-03T21:54:29.453Z,5.20
2023-03-03T21:56:57.067Z,6.68
2023-03-03T21:59:24.712Z,6.18
2023-03-03T22:01:52.327Z,5.75
2023-03-03T22:04:20.093Z,7.47
2023-03-03T22:06:47.989Z,7.03
2023-03-03T22:09:17.209Z,7.45
2023-03-03T22:11:44.960Z,6.70
2023-03-03T22:14:12.741Z,6.78
2023-03-03T22:16:40.707Z,6.10
2023-03-03T22:19:09.445Z,6.90
2023-03-03T22:21:37.197Z,6.85
2023-03-03T22:24:05.376Z,6.47
2023-03-03T22:26:34.593Z,6.32
2023-03-03T22:29:02.475Z,5.97
2023-03-03T22:31:30.209Z,5.97
2023-03-03T22:33:58.059Z,5.50
2023-03-03T22:36:25.713Z,5.85
2023-03-03T22:38:53.444Z,5.38
2023-03-03T22:41:21.374Z,4.97
2023-03-03T22:43:50.633Z,5.25
2023-03-03T22:46:18.367Z,4.88
2023-03-03T22:48:45.992Z,4.32
2023-03-03T22:51:13.656Z,5.25
2023-03-03T22:53:41.329Z,4.85
2023-03-03T22:56:09.005Z,4.72
2023-03-03T22:58:36.648Z,5.82
2023-03-03T23:01:05.883Z,5.75
2023-03-03T23:03:33.743Z,5.95
2023-03-03T23:06:01.478Z,5.97
2023-03-03T23:08:29.223Z,4.85
2023-03-03T23:10:56.856Z,5.80
2023-03-03T23:13:25.256Z,5.57
2023-03-03T23:15:52.967Z,5.53
2023-03-03T23:18:21.939Z,4.78
2023-03-03T23:20:49.798Z,4.57
2023-03-03T23:23:17.449Z,4.13
2023-03-03T23:25:45.072Z,4.78
2023-03-03T23:28:15.449Z,4.32
2023-03-03T23:30:43.122Z,3.97
2023-03-03T23:33:10.749Z,3.88
2023-03-03T23:35:39.769Z,4.60
2023-03-03T23:38:07.488Z,4.40
2023-03-03T23:40:35.125Z,3.97
2023-03-03T23:43:02.757Z,4.32
2023-03-03T23:45:30.391Z,4.80
2023-03-03T23:47:59.145Z,3.90
2023-03-03T23:50:26.849Z,4.07
2023-03-03T23:52:55.862Z,3.72
2023-03-03T23:55:24.324Z,4.28
2023-03-03T23:57:51.903Z,3.92
